createdAt,value
2019-01-05T00:01:32.996Z,100562.09
2019-01-05T00:04:16.395Z,100564.97
2019-01-05T00:07:01.077Z,100568.98
2019-01-05T00:09:44.229Z,100564.39
2019-01-05T00:12:17.988Z,100562.09
2019-01-05T00:14:52.180Z,100559.22
2019-01-05T00:17:29.460Z,100559.59
2019-01-05T00:20:00.947Z,100557.31
2019-01-05T00:22:31.928Z,100546.34
2019-01-05T00:25:16.599Z,100543.06
2019-01-05T00:27:48.288Z,100542.20
2019-01-05T00:30:19.302Z,100540.00
2019-01-05T00:32:57.028Z,100537.22
2019-01-05T00:35:36.695Z,100534.48
2019-01-05T00:38:16.691Z,100540.54
2019-01-05T00:41:02.681Z,100524.39
2019-01-05T00:43:36.807Z,100535.91
2019-01-05T00:46:11.651Z,100528.81
2019-01-05T00:48:50.184Z,100514.49
2019-01-05T00:51:20.775Z,100517.00
2019-01-05T00:53:49.167Z,100510.80
2019-01-05T00:56:23.499Z,100512.81
2019-01-05T00:59:03.732Z,100506.61
2019-01-05T01:01:48.598Z,100503.47
2019-01-05T01:04:16.679Z,100491.75
2019-01-05T01:06:44.877Z,100490.47
2019-01-05T01:09:21.717Z,100485.87
2019-01-05T01:11:52.739Z,100485.75
2019-01-05T01:14:37.803Z,100483.64
2019-01-05T01:17:15.017Z,100470.19
2019-01-05T01:19:48.826Z,100467.19
2019-01-05T01:22:17.138Z,100467.02
2019-01-05T01:24:48.439Z,100461.17
2019-01-05T01:27:16.859Z,100460.77
2019-01-05T01:30:00.595Z,100458.41
2019-01-05T01:32:34.619Z,100455.45
2019-01-05T01:35:19.276Z,100446.87
2019-01-05T01:38:36.395Z,100443.09
2019-01-05T01:41:27.456Z,100437.88
2019-01-05T01:44:08.055Z,100436.47
2019-01-05T01:46:53.070Z,100435.27
2019-01-05T01:49:35.080Z,100433.27
2019-01-05T01:52:04.270Z,100411.02
2019-01-05T01:54:49.429Z,100404.09
2019-01-05T01:57:37.184Z,100401.15
2019-01-05T02:00:28.076Z,100387.05
2019-01-05T02:03:07.400Z,100375.59
2019-01-05T02:05:39.623Z,100369.77
2019-01-05T02:08:24.727Z,100351.05
2019-01-05T02:11:13.866Z,100346.60
2019-01-05T02:14:04.541Z,100352.86
2019-01-05T02:16:52.188Z,100341.66
2019-01-05T02:19:43.330Z,100345.03
2019-01-05T02:22:57.613Z,100337.23
2019-01-05T02:25:37.404Z,100332.70
2019-01-05T02:28:45.593Z,100317.86
2019-01-05T02:31:43.816Z,100289.11
2019-01-05T02:34:50.226Z,100289.83
2019-01-05T02:38:09.598Z,100294.48
2019-01-05T02:41:15.276Z,100296.70
2019-01-05T02:44:30.287Z,100281.03
2019-01-05T02:48:03.189Z,100270.81
2019-01-05T02:51:00.357Z,100273.90
2019-01-05T02:54:02.746Z,100260.52
2019-01-05T02:57:22.725Z,100282.89
2019-01-05T03:00:37.157Z,100278.97
2019-01-05T03:03:46.629Z,100268.95
2019-01-05T03:06:26.066Z,100263.71
2019-01-05T03:10:03.442Z,100255.15
2019-01-05T03:12:58.098Z,100246.19
2019-01-05T03:16:11.368Z,100241.46
2019-01-05T03:19:02.781Z,100233.41
2019-01-05T03:22:26.936Z,100226.94
2019-01-05T03:25:29.270Z,100213.83
2019-01-05T03:28:46.916Z,100209.73
2019-01-05T03:31:46.287Z,100213.91
2019-01-05T03:34:41.017Z,100202.83
2019-01-05T03:37:54.405Z,100193.34
2019-01-05T03:40:55.591Z,100191.30
2019-01-05T03:43:44.117Z,100182.00
2019-01-05T03:47:00.306Z,100185.80
2019-01-05T03:50:22.878Z,100174.73
2019-01-05T03:53:23.596Z,100175.13
2019-01-05T03:56:26.222Z,100166.78
2019-01-05T03:59:36.780Z,100155.30
2019-01-05T04:02:25.711Z,100144.48
2019-01-05T04:05:20.778Z,100148.28
2019-01-05T04:08:28.649Z,100144.11
2019-01-05T04:11:54.431Z,100141.23
2019-01-05T04:14:54.022Z,100130.36
2019-01-05T04:17:59.602Z,100143.51
2019-01-05T04:21:02.767Z,100108.24
2019-01-05T04:23:56.130Z,100126.62
2019-01-05T04:27:26.986Z,100115.23
2019-01-05T04:30:41.932Z,100103.36
2019-01-05T04:33:27.130Z,100103.51
2019-01-05T04:36:15.560Z,100103.30
2019-01-05T04:39:23.862Z,100120.22
2019-01-05T04:42:25.986Z,100115.80
2019-01-05T04:45:32.048Z,100114.91
2019-01-05T04:48:54.407Z,100100.02
2019-01-05T04:52:14.615Z,100100.90
2019-01-05T04:55:13.978Z,100083.45
2019-01-05T04:58:02.327Z,100092.59
2019-01-05T05:01:28.055Z,100096.98
2019-01-05T05:04:41.124Z,100083.03
2019-01-05T05:07:47.419Z,100084.94
2019-01-05T05:10:51.144Z,100086.67
2019-01-05T05:13:48.885Z,100080.19
2019-01-05T05:17:04.073Z,100082.23
2019-01-05T05:20:15.672Z,100076.19
2019-01-05T05:23:11.937Z,100064.61
2019-01-05T05:26:28.683Z,100059.98
2019-01-05T05:29:29.249Z,100060.20
2019-01-05T05:32:23.729Z,100055.14
2019-01-05T05:35:06.675Z,100045.74
2019-01-05T05:38:15.437Z,100056.23
2019-01-05T05:41:31.663Z,100050.32
2019-01-05T05:47:58.350Z,100049.76
2019-01-05T05:50:47.045Z,100051.78
2019-01-05T05:54:17.759Z,100052.13
2019-01-05T05:57:42.509Z,100048.59
2019-01-05T06:00:47.944Z,100056.22
2019-01-05T06:03:48.822Z,100062.89
2019-01-05T06:06:39.907Z,100069.09
2019-01-05T06:10:02.246Z,100065.52
2019-01-05T06:13:28.203Z,100059.64
2019-01-05T06:16:18.879Z,100052.81
2019-01-05T06:19:09.658Z,100058.07
2019-01-05T06:21:58.595Z,100046.74
2019-01-05T06:25:11.443Z,100028.05
2019-01-05T06:28:41.918Z,100035.94
2019-01-05T06:31:46.638Z,100040.13
2019-01-05T06:35:09.683Z,100036.58
2019-01-05T06:38:05.557Z,100037.08
2019-01-05T06:41:04.051Z,100032.74
2019-01-05T06:44:00.448Z,100043.85
2019-01-05T06:47:01.024Z,100051.80
2019-01-05T06:50:31.453Z,100044.66
2019-01-05T06:53:36.206Z,100039.02
2019-01-05T06:56:33.200Z,100032.51
2019-01-05T06:59:23.674Z,100038.45
2019-01-05T07:02:25.939Z,100041.91
2019-01-05T07:05:32.489Z,100045.73
2019-01-05T07:08:55.686Z,100048.45
2019-01-05T07:12:04.628Z,100045.09
2019-01-05T07:15:04.904Z,100036.73
2019-01-05T07:18:07.316Z,100033.59
2019-01-05T07:20:58.439Z,100038.78
2019-01-05T07:23:57.302Z,100045.00
2019-01-05T07:26:57.606Z,100048.20
2019-01-05T07:30:34.799Z,100034.77
2019-01-05T07:34:00.186Z,100054.38
2019-01-05T07:36:45.567Z,100057.25
2019-01-05T07:40:07.650Z,100048.73
2019-01-05T07:43:43.918Z,100058.97
2019-01-05T07:46:55.248Z,100065.13
2019-01-05T07:50:03.912Z,100071.13
2019-01-05T07:53:28.912Z,100075.73
2019-01-05T07:56:56.332Z,100079.17
2019-01-05T07:59:56.863Z,100078.59
2019-01-05T08:03:10.201Z,100082.54
2019-01-05T08:06:16.528Z,100082.88
2019-01-05T08:09:31.366Z,100078.09
2019-01-05T08:12:33.599Z,100089.86
2019-01-05T08:15:28.454Z,100085.66
2019-01-05T08:18:36.065Z,100083.77
2019-01-05T08:21:35.737Z,100091.92
2019-01-05T08:24:54.084Z,100098.06
2019-01-05T08:28:05.664Z,100095.05
2019-01-05T08:31:03.088Z,100102.09
2019-01-05T08:34:30.452Z,100107.86
2019-01-05T08:37:47.898Z,100101.76
2019-01-05T08:41:03.386Z,100098.33
2019-01-05T08:44:14.829Z,100108.60
2019-01-05T08:47:19.880Z,100111.34
2019-01-05T08:50:27.579Z,100119.76
2019-01-05T08:53:30.638Z,100126.56
2019-01-05T08:56:31.141Z,100134.73
2019-01-05T08:59:46.422Z,100127.68
2019-01-05T09:02:53.480Z,100127.44
2019-01-05T09:05:52.973Z,100131.12
2019-01-05T09:09:12.844Z,100126.53
2019-01-05T09:12:03.890Z,100129.91
2019-01-05T09:15:11.448Z,100121.33
2019-01-05T09:18:06.155Z,100128.10
2019-01-05T09:21:25.306Z,100124.66
2019-01-05T09:24:18.560Z,100129.34
2019-01-05T09:27:42.653Z,100121.64
2019-01-05T09:30:36.102Z,100130.11
2019-01-05T09:33:48.801Z,100137.87
2019-01-05T09:36:34.679Z,100130.53
2019-01-05T09:39:50.218Z,100141.77
2019-01-05T09:43:12.580Z,100147.59
2019-01-05T09:46:24.916Z,100143.01
2019-01-05T09:49:45.215Z,100147.52
2019-01-05T09:52:30.772Z,100146.20
2019-01-05T09:55:19.728Z,100154.16
2019-01-05T09:58:20.363Z,100159.94
2019-01-05T10:01:37.031Z,100164.63
2019-01-05T10:04:40.925Z,100158.89
2019-01-05T10:07:20.703Z,100160.36
2019-01-05T10:10:41.131Z,100156.70
2019-01-05T10:13:51.413Z,100163.62
2019-01-05T10:17:04.538Z,100158.36
2019-01-05T10:20:10.345Z,100155.25
2019-01-05T10:23:17.111Z,100160.00
2019-01-05T10:26:27.291Z,100159.39
2019-01-05T10:29:47.299Z,100165.90
2019-01-05T10:32:53.091Z,100166.19
2019-01-05T10:36:15.915Z,100157.38
2019-01-05T10:39:27.719Z,100157.94
2019-01-05T10:42:44.955Z,100165.00
2019-01-05T10:45:54.819Z,100166.88
2019-01-05T10:48:48.173Z,100163.11
2019-01-05T10:51:45.163Z,100165.23
2019-01-05T10:55:15.791Z,100168.92
2019-01-05T10:58:24.535Z,100163.67
2019-01-05T11:01:25.365Z,100173.20
2019-01-05T11:04:44.093Z,100169.27
2019-01-05T11:08:09.424Z,100174.95
2019-01-05T11:11:12.735Z,100168.58
2019-01-05T11:14:23.818Z,100171.30
2019-01-05T11:17:22.770Z,100172.59
2019-01-05T11:20:23.989Z,100184.88
2019-01-05T11:23:21.917Z,100188.88
2019-01-05T11:26:13.087Z,100188.69
2019-01-05T11:29:24.297Z,100191.79
2019-01-05T11:32:34.694Z,100181.09
2019-01-05T11:35:33.242Z,100179.00
2019-01-05T11:38:56.586Z,100182.30
2019-01-05T11:41:55.571Z,100187.07
2019-01-05T11:45:20.228Z,100187.16
2019-01-05T11:48:04.658Z,100186.64
2019-01-05T11:50:53.139Z,100183.61
2019-01-05T11:53:50.200Z,100171.05
2019-01-05T11:57:04.660Z,100176.36
2019-01-05T12:00:28.964Z,100178.39
2019-01-05T12:03:34.852Z,100171.03
2019-01-05T12:06:19.732Z,100175.44
2019-01-05T12:09:46.089Z,100175.44
2019-01-05T12:12:49.884Z,100176.31
2019-01-05T12:16:01.690Z,100188.66
2019-01-05T12:19:29.946Z,100186.88
2019-01-05T12:22:28.784Z,100189.91
2019-01-05T12:25:28.876Z,100194.68
2019-01-05T12:28:29.710Z,100197.77
2019-01-05T12:31:48.046Z,100197.06
2019-01-05T12:34:39.673Z,100206.53
2019-01-05T12:37:58.303Z,100220.84
2019-01-05T12:41:13.968Z,100221.76
2019-01-05T12:44:40.038Z,100226.53
2019-01-05T12:47:36.726Z,100239.52
2019-01-05T12:51:02.859Z,100234.25
2019-01-05T12:54:02.924Z,100236.64
2019-01-05T12:57:34.366Z,100240.44
2019-01-05T13:00:22.881Z,100238.23
2019-01-05T13:03:21.652Z,100247.75
2019-01-05T13:06:48.557Z,100243.58
2019-01-05T13:10:03.241Z,100253.47
2019-01-05T13:13:09.838Z,100260.10
2019-01-05T13:16:13.617Z,100276.26
2019-01-05T13:19:28.135Z,100284.61
2019-01-05T13:22:42.794Z,100282.56
2019-01-05T13:25:40.098Z,100280.45
2019-01-05T13:28:46.524Z,100277.44
2019-01-05T13:31:44.187Z,100278.92
2019-01-05T13:35:09.881Z,100276.29
2019-01-05T13:38:13.381Z,100284.17
2019-01-05T13:41:27.677Z,100289.14
2019-01-05T13:44:22.615Z,100292.27
2019-01-05T13:47:45.317Z,100289.27
2019-01-05T13:50:44.624Z,100291.51
2019-01-05T13:53:21.216Z,100292.34
2019-01-05T13:55:57.116Z,100299.91
2019-01-05T13:58:41.729Z,100292.84
2019-01-05T14:01:09.814Z,100293.58
2019-01-05T14:03:56.096Z,100295.73
2019-01-05T14:06:30.350Z,100290.69
2019-01-05T14:09:04.570Z,100295.11
2019-01-05T14:11:35.568Z,100287.08
2019-01-05T14:14:20.785Z,100297.48
2019-01-05T14:16:49.036Z,100302.54
2019-01-05T14:19:23.183Z,100303.24
2019-01-05T14:22:08.750Z,100303.80
2019-01-05T14:24:54.867Z,100306.44
2019-01-05T14:27:27.638Z,100309.41
2019-01-05T14:30:12.357Z,100313.88
2019-01-05T14:32:56.426Z,100311.01
2019-01-05T14:35:32.227Z,100311.77
2019-01-05T14:38:17.176Z,100314.23
2019-01-05T14:40:50.738Z,100319.56
2019-01-05T14:43:24.836Z,100317.73
2019-01-05T14:46:04.922Z,100318.67
2019-01-05T14:48:38.770Z,100324.45
2019-01-05T14:51:19.177Z,100320.97
2019-01-05T14:53:50.160Z,100332.02
2019-01-05T14:56:30.531Z,100336.30
2019-01-05T14:59:13.844Z,100338.06
2019-01-05T15:01:42.331Z,100337.71
2019-01-05T15:04:13.125Z,100340.03
2019-01-05T15:06:49.403Z,100338.55
2019-01-05T15:09:17.532Z,100337.07
2019-01-05T15:11:48.682Z,100333.72
2019-01-05T15:14:16.804Z,100335.87
2019-01-05T15:16:57.240Z,100335.10
2019-01-05T15:19:31.532Z,100337.20
2019-01-05T15:22:11.785Z,100335.87
2019-01-05T15:24:45.963Z,100340.27
2019-01-05T15:27:14.657Z,100350.47
2019-01-05T15:29:54.723Z,100353.00
2019-01-05T15:32:22.934Z,100350.73
2019-01-05T15:35:00.220Z,100358.95
2019-01-05T15:37:31.288Z,100356.08
2019-01-05T15:40:02.198Z,100363.59
2019-01-05T15:42:41.353Z,100354.22
2019-01-05T15:45:18.541Z,100358.72
2019-01-05T15:48:05.143Z,100362.39
2019-01-05T15:50:46.396Z,100360.59
2019-01-05T15:53:14.599Z,100364.17
2019-01-05T15:55:42.984Z,100368.33
2019-01-05T15:58:11.215Z,100369.02
2019-01-05T16:00:51.966Z,100372.44
2019-01-05T16:03:39.245Z,100376.09
2019-01-05T16:06:10.218Z,100378.59
2019-01-05T16:08:38.353Z,100370.59
2019-01-05T16:11:06.640Z,100368.77
2019-01-05T16:13:40.456Z,100375.07
2019-01-05T16:16:08.599Z,100378.18
2019-01-05T16:18:52.124Z,100376.20
2019-01-05T16:24:13.773Z,100388.81
2019-01-05T16:26:47.708Z,100379.28
2019-01-05T16:29:32.420Z,100385.14
2019-01-05T16:32:17.368Z,100390.13
2019-01-05T16:34:48.245Z,100393.72
2019-01-05T16:37:28.616Z,100399.80
2019-01-05T16:40:09.034Z,100401.50
2019-01-05T16:42:37.158Z,100409.89
2019-01-05T16:45:12.846Z,100408.91
2019-01-05T16:47:53.116Z,100409.82
2019-01-05T16:50:37.888Z,100412.52
2019-01-05T16:53:13.058Z,100416.16
2019-01-05T16:55:57.881Z,100417.96
2019-01-05T16:58:28.980Z,100420.81
2019-01-05T17:00:57.071Z,100428.14
2019-01-05T17:03:29.142Z,100433.85
2019-01-05T17:05:57.209Z,100430.67
2019-01-05T17:08:28.330Z,100430.47
2019-01-05T17:11:08.956Z,100427.41
2019-01-05T17:13:43.136Z,100429.73
2019-01-05T17:16:11.228Z,100424.20
2019-01-05T17:18:56.038Z,100432.28
2019-01-05T17:21:30.417Z,100428.76
2019-01-05T17:24:16.671Z,100430.48
2019-01-05T17:26:44.752Z,100435.42
2019-01-05T17:29:24.904Z,100435.31
2019-01-05T17:32:09.749Z,100428.10
2019-01-05T17:34:40.581Z,100429.07
2019-01-05T17:37:25.610Z,100431.14
2019-01-05T17:40:12.139Z,100420.69
2019-01-05T17:42:40.711Z,100419.72
2019-01-05T17:45:21.043Z,100422.52
2019-01-05T17:47:52.186Z,100421.02
2019-01-05T17:50:37.062Z,100415.92
2019-01-05T17:53:24.090Z,100420.13
2019-01-05T17:55:55.050Z,100416.16
2019-01-05T17:58:29.229Z,100420.84
2019-01-05T18:01:09.642Z,100414.45
2019-01-05T18:03:43.876Z,100423.16
2019-01-05T18:06:12.129Z,100419.45
2019-01-05T18:08:40.208Z,100425.91
2019-01-05T18:11:23.968Z,100423.31
2019-01-05T18:13:58.553Z,100415.41
2019-01-05T18:16:29.543Z,100410.15
2019-01-05T18:19:15.769Z,100413.79
2019-01-05T18:21:46.045Z,100418.88
2019-01-05T18:24:30.814Z,100424.63
2019-01-05T18:26:58.983Z,100423.64
2019-01-05T18:29:36.521Z,100435.02
2019-01-05T18:32:23.193Z,100426.01
2019-01-05T18:35:00.238Z,100435.83
2019-01-05T18:37:34.013Z,100437.63
2019-01-05T18:40:02.391Z,100432.00
2019-01-05T18:42:50.115Z,100432.92
2019-01-05T18:45:35.151Z,100438.37
2019-01-05T18:48:18.174Z,100435.66
2019-01-05T18:50:58.419Z,100442.32
2019-01-05T18:53:26.549Z,100444.78
2019-01-05T18:56:11.571Z,100443.06
2019-01-05T18:58:59.666Z,100448.03
2019-01-05T19:01:43.101Z,100451.31
2019-01-05T19:04:14.099Z,100452.20
2019-01-05T19:06:42.372Z,100455.64
2019-01-05T19:09:13.492Z,100452.85
2019-01-05T19:11:45.721Z,100456.55
2019-01-05T19:14:22.993Z,100457.41
2019-01-05T19:16:54.426Z,100460.02
2019-01-05T19:19:27.375Z,100455.27
2019-01-05T19:22:07.414Z,100461.31
2019-01-05T19:24:50.962Z,100455.09
2019-01-05T19:27:30.231Z,100459.45
2019-01-05T19:30:01.474Z,100461.59
2019-01-05T19:32:39.055Z,100467.24
2019-01-05T19:35:24.155Z,100467.08
2019-01-05T19:38:11.659Z,100469.13
2019-01-05T19:40:54.972Z,100468.65
2019-01-05T19:43:23.164Z,100471.20
2019-01-05T19:45:57.381Z,100469.23
2019-01-05T19:48:44.561Z,100470.89
2019-01-05T19:51:28.014Z,100477.34
2019-01-05T19:54:12.757Z,100478.62
2019-01-05T19:56:47.135Z,100492.48
2019-01-05T19:59:18.058Z,100498.08
2019-01-05T20:02:01.812Z,100497.94
2019-01-05T20:04:29.912Z,100501.28
2019-01-05T20:07:14.658Z,100498.08
2019-01-05T20:09:45.788Z,100508.02
2019-01-05T20:12:28.934Z,100512.69
2019-01-05T20:15:02.954Z,100506.78
2019-01-05T20:17:40.108Z,100507.50
2019-01-05T20:20:17.683Z,100506.73
2019-01-05T20:22:48.916Z,100507.20
2019-01-05T20:25:33.828Z,100511.20
2019-01-05T20:28:18.937Z,100509.77
2019-01-05T20:30:49.988Z,100510.06
2019-01-05T20:33:27.036Z,100509.77
2019-01-05T20:35:55.169Z,100511.98
2019-01-05T20:38:29.269Z,100515.84
2019-01-05T20:41:14.498Z,100516.89
2019-01-05T20:43:45.231Z,100516.52
2019-01-05T20:46:19.407Z,100520.95
2019-01-05T20:48:50.680Z,100523.82
2019-01-05T20:51:24.881Z,100520.07
2019-01-05T20:53:53.367Z,100529.75
2019-01-05T20:56:30.467Z,100528.92
2019-01-05T20:58:58.534Z,100541.17
2019-01-05T21:01:43.415Z,100549.78
2019-01-05T21:04:14.491Z,100550.09
2019-01-05T21:06:42.771Z,100551.70
2019-01-05T21:09:26.069Z,100550.47
2019-01-05T21:11:57.120Z,100553.80
2019-01-05T21:14:31.134Z,100556.05
2019-01-05T21:17:04.983Z,100555.97
2019-01-05T21:19:33.833Z,100557.28
2019-01-05T21:22:05.301Z,100565.98
2019-01-05T21:24:33.442Z,100563.52
2019-01-05T21:27:01.558Z,100562.90
2019-01-05T21:29:46.167Z,100561.46
2019-01-05T21:32:17.273Z,100566.19
2019-01-05T21:34:57.530Z,100567.78
2019-01-05T21:37:31.626Z,100563.73
2019-01-05T21:40:16.403Z,100568.63
2019-01-05T21:42:50.574Z,100571.48
2019-01-05T21:45:21.542Z,100572.87
2019-01-05T21:47:52.348Z,100578.69
2019-01-05T21:50:35.902Z,100584.38
2019-01-05T21:53:10.159Z,100589.22
2019-01-05T21:55:38.214Z,100588.79
2019-01-05T21:58:12.056Z,100593.59
2019-01-05T22:00:56.814Z,100597.06
2019-01-05T22:03:30.965Z,100600.89
2019-01-05T22:06:15.742Z,100604.45
2019-01-05T22:09:02.431Z,100602.97
2019-01-05T22:11:39.440Z,100602.27
2019-01-05T22:14:24.316Z,100608.31
2019-01-05T22:16:52.421Z,100602.23
2019-01-05T22:19:20.538Z,100609.91
2019-01-05T22:22:05.471Z,100610.98
2019-01-05T22:24:39.698Z,100610.45
2019-01-05T22:27:24.520Z,100608.60
2019-01-05T22:30:09.463Z,100611.03
2019-01-05T22:32:40.658Z,100614.25
2019-01-05T22:35:08.752Z,100607.37
2019-01-05T22:37:53.817Z,100622.78
2019-01-05T22:40:37.178Z,100631.20
2019-01-05T22:43:11.754Z,100628.33
2019-01-05T22:45:56.355Z,100631.28
2019-01-05T22:48:27.434Z,100631.56
2019-01-05T22:50:55.633Z,100633.16
2019-01-05T22:53:23.789Z,100640.36
2019-01-05T22:55:58.072Z,100644.53
2019-01-05T22:58:42.886Z,100643.55
2019-01-05T23:01:23.442Z,100625.77
2019-01-05T23:04:08.338Z,100623.70
2019-01-05T23:06:53.275Z,100621.18
2019-01-05T23:09:36.706Z,100625.62
2019-01-05T23:12:04.798Z,100625.52
2019-01-05T23:14:42.174Z,100631.28
2019-01-05T23:17:10.648Z,100627.02
2019-01-05T23:19:38.790Z,100637.27
2019-01-05T23:22:24.836Z,100636.38
2019-01-05T23:24:53.283Z,100641.70
2019-01-05T23:27:30.597Z,100647.77
2019-01-05T23:30:20.031Z,100647.23
2019-01-05T23:32:50.691Z,100649.75
2019-01-05T23:35:27.924Z,100653.70
2019-01-05T23:38:04.897Z,100657.45
2019-01-05T23:40:33.049Z,100661.84
2019-01-05T23:43:01.128Z,100672.48
2019-01-05T23:45:38.161Z,100668.94
2019-01-05T23:48:21.598Z,100681.55
2019-01-05T23:51:06.406Z,100699.44
2019-01-05T23:53:51.373Z,100712.03
2019-01-05T23:56:25.461Z,100722.34
2019-01-05T23:58:53.579Z,100718.26
